sensor_id;sensor_type;location;lat;lon;timestamp;P1;durP1;ratioP1;P2;durP2;ratioP2
28003;SDS011;15330;51.234;6.754;2024-01-10T00:00:03;22.90;;;9.30;;
28003;SDS011;15330;51.234;6.754;2024-01-10T00:02:29;19.40;;;9.70;;
28003;SDS011;15330;51.234;6.754;2024-01-10T00:04:54;21.05;;;8.95;;
28003;SDS011;15330;51.234;6.754;2024-01-10T00:07:20;21.58;;;9.63;;
28003;SDS011;15330;51.234;6.754;2024-01-10T00:09:45;21.85;;;9.77;;
28003;SDS011;15330;51.234;6.754;2024-01-10T00:12:11;21.40;;;9.02;;
28003;SDS011;15330;51.234;6.754;2024-01-10T00:14:36;21.60;;;9.23;;
28003;SDS011;15330;51.234;6.754;2024-01-10T00:17:02;20.95;;;8.65;;
28003;SDS011;15330;51.234;6.754;2024-01-10T00:19:27;17.65;;;8.75;;
28003;SDS011;15330;51.234;6.754;2024-01-10T00:21:52;20.80;;;9.05;;
28003;SDS011;15330;51.234;6.754;2024-01-10T00:24:18;20.13;;;9.18;;
28003;SDS011;15330;51.234;6.754;2024-01-10T00:26:43;18.45;;;9.23;;
28003;SDS011;15330;51.234;6.754;2024-01-10T00:29:08;22.55;;;9.63;;
28003;SDS011;15330;51.234;6.754;2024-01-10T00:31:34;20.65;;;8.90;;
28003;SDS011;15330;51.234;6.754;2024-01-10T00:33:59;18.90;;;9.18;;
28003;SDS011;15330;51.234;6.754;2024-01-10T00:36:25;19.50;;;8.90;;
28003;SDS011;15330;51.234;6.754;2024-01-10T00:38:51;20.33;;;9.75;;
28003;SDS011;15330;51.234;6.754;2024-01-10T00:41:16;19.30;;;8.65;;
28003;SDS011;15330;51.234;6.754;2024-01-10T00:43:41;21.38;;;9.02;;
28003;SDS011;15330;51.234;6.754;2024-01-10T00:46:07;16.70;;;9.27;;
28003;SDS011;15330;51.234;6.754;2024-01-10T00:48:32;22.80;;;9.00;;
28003;SDS011;15330;51.234;6.754;2024-01-10T00:50:59;21.27;;;9.05;;
28003;SDS011;15330;51.234;6.754;2024-01-10T00:53:24;21.42;;;9.73;;
28003;SDS011;15330;51.234;6.754;2024-01-10T00:55:49;19.25;;;8.88;;
28003;SDS011;15330;51.234;6.754;2024-01-10T00:58:15;22.90;;;8.95;;
28003;SDS011;15330;51.234;6.754;2024-01-10T01:00:41;17.98;;;8.25;;
28003;SDS011;15330;51.234;6.754;2024-01-10T01:03:06;17.77;;;8.65;;
28003;SDS011;15330;51.234;6.754;2024-01-10T01:05:31;22.08;;;9.25;;
28003;SDS011;15330;51.234;6.754;2024-01-10T01:07:57;19.65;;;9.07;;
28003;SDS011;15330;51.234;6.754;2024-01-10T01:10:22;18.90;;;8.60;;
28003;SDS011;15330;51.234;6.754;2024-01-10T01:12:48;19.75;;;9.73;;
28003;SDS011;15330;51.234;6.754;2024-01-10T01:15:13;17.80;;;8.77;;
28003;SDS011;15330;51.234;6.754;2024-01-10T01:17:38;20.15;;;8.70;;
28003;SDS011;15330;51.234;6.754;2024-01-10T01:20:04;18.48;;;8.18;;
28003;SDS011;15330;51.234;6.754;2024-01-10T01:22:30;22.35;;;9.32;;
28003;SDS011;15330;51.234;6.754;2024-01-10T01:24:58;24.52;;;9.52;;
28003;SDS011;15330;51.234;6.754;2024-01-10T01:27:24;20.23;;;9.30;;
28003;SDS011;15330;51.234;6.754;2024-01-10T01:29:49;21.00;;;9.25;;
28003;SDS011;15330;51.234;6.754;2024-01-10T01:32:15;18.35;;;8.05;;
28003;SDS011;15330;51.234;6.754;2024-01-10T01:34:40;21.35;;;9.30;;
28003;SDS011;15330;51.234;6.754;2024-01-10T01:37:05;17.92;;;8.50;;
28003;SDS011;15330;51.234;6.754;2024-01-10T01:39:31;18.50;;;8.65;;
28003;SDS011;15330;51.234;6.754;2024-01-10T01:41:56;24.45;;;8.93;;
28003;SDS011;15330;51.234;6.754;2024-01-10T01:44:21;24.52;;;9.23;;
28003;SDS011;15330;51.234;6.754;2024-01-10T01:46:47;22.67;;;10.00;;
28003;SDS011;15330;51.234;6.754;2024-01-10T01:49:13;18.98;;;8.77;;
28003;SDS011;15330;51.234;6.754;2024-01-10T01:51:39;18.70;;;8.50;;
28003;SDS011;15330;51.234;6.754;2024-01-10T01:54:06;20.92;;;9.05;;
28003;SDS011;15330;51.234;6.754;2024-01-10T01:56:36;19.48;;;9.32;;
28003;SDS011;15330;51.234;6.754;2024-01-10T01:59:03;19.17;;;8.57;;
28003;SDS011;15330;51.234;6.754;2024-01-10T02:01:29;20.00;;;9.13;;
28003;SDS011;15330;51.234;6.754;2024-01-10T02:03:55;22.10;;;9.15;;
28003;SDS011;15330;51.234;6.754;2024-01-10T02:06:21;22.40;;;9.30;;
28003;SDS011;15330;51.234;6.754;2024-01-10T02:08:47;21.15;;;8.63;;
28003;SDS011;15330;51.234;6.754;2024-01-10T02:11:12;19.95;;;8.60;;
28003;SDS011;15330;51.234;6.754;2024-01-10T02:13:38;18.73;;;8.55;;
28003;SDS011;15330;51.234;6.754;2024-01-10T02:16:03;21.58;;;8.23;;
28003;SDS011;15330;51.234;6.754;2024-01-10T02:18:30;19.15;;;8.18;;
28003;SDS011;15330;51.234;6.754;2024-01-10T02:20:56;18.45;;;8.65;;
28003;SDS011;15330;51.234;6.754;2024-01-10T02:23:22;18.42;;;8.75;;
28003;SDS011;15330;51.234;6.754;2024-01-10T02:25:48;19.38;;;9.23;;
28003;SDS011;15330;51.234;6.754;2024-01-10T02:28:13;19.85;;;8.57;;
28003;SDS011;15330;51.234;6.754;2024-01-10T02:30:39;18.85;;;9.35;;
28003;SDS011;15330;51.234;6.754;2024-01-10T02:33:04;19.02;;;8.27;;
28003;SDS011;15330;51.234;6.754;2024-01-10T02:35:30;17.33;;;8.15;;
28003;SDS011;15330;51.234;6.754;2024-01-10T02:37:58;18.33;;;7.68;;
28003;SDS011;15330;51.234;6.754;2024-01-10T02:40:23;19.52;;;8.88;;
28003;SDS011;15330;51.234;6.754;2024-01-10T02:42:49;22.25;;;9.15;;
28003;SDS011;15330;51.234;6.754;2024-01-10T02:45:16;18.05;;;8.32;;
28003;SDS011;15330;51.234;6.754;2024-01-10T02:47:41;17.00;;;8.38;;
28003;SDS011;15330;51.234;6.754;2024-01-10T02:50:07;19.73;;;8.55;;
28003;SDS011;15330;51.234;6.754;2024-01-10T02:52:32;19.90;;;8.98;;
28003;SDS011;15330;51.234;6.754;2024-01-10T02:54:58;17.42;;;8.38;;
28003;SDS011;15330;51.234;6.754;2024-01-10T02:57:23;20.30;;;9.13;;
28003;SDS011;15330;51.234;6.754;2024-01-10T02:59:49;16.42;;;7.88;;
28003;SDS011;15330;51.234;6.754;2024-01-10T03:02:14;22.08;;;9.13;;
28003;SDS011;15330;51.234;6.754;2024-01-10T03:04:40;19.88;;;9.93;;
28003;SDS011;15330;51.234;6.754;2024-01-10T03:07:06;19.30;;;8.48;;
28003;SDS011;15330;51.234;6.754;2024-01-10T03:09:32;19.85;;;8.60;;
28003;SDS011;15330;51.234;6.754;2024-01-10T03:11:57;17.27;;;8.38;;
28003;SDS011;15330;51.234;6.754;2024-01-10T03:14:22;22.10;;;9.07;;
28003;SDS011;15330;51.234;6.754;2024-01-10T03:16:48;19.80;;;9.07;;
28003;SDS011;15330;51.234;6.754;2024-01-10T03:19:13;19.02;;;8.50;;
28003;SDS011;15330;51.234;6.754;2024-01-10T03:21:39;21.85;;;8.73;;
28003;SDS011;15330;51.234;6.754;2024-01-10T03:24:04;19.92;;;9.35;;
28003;SDS011;15330;51.234;6.754;2024-01-10T03:26:30;18.35;;;9.20;;
28003;SDS011;15330;51.234;6.754;2024-01-10T03:28:56;20.48;;;9.23;;
28003;SDS011;15330;51.234;6.754;2024-01-10T03:31:22;21.63;;;9.38;;
28003;SDS011;15330;51.234;6.754;2024-01-10T03:33:48;21.67;;;9.15;;
28003;SDS011;15330;51.234;6.754;2024-01-10T03:36:15;20.40;;;9.13;;
28003;SDS011;15330;51.234;6.754;2024-01-10T03:38:41;21.50;;;8.98;;
28003;SDS011;15330;51.234;6.754;2024-01-10T03:41:06;18.00;;;8.55;;
28003;SDS011;15330;51.234;6.754;2024-01-10T03:43:32;21.38;;;8.98;;
28003;SDS011;15330;51.234;6.754;2024-01-10T03:45:57;19.52;;;8.65;;
28003;SDS011;15330;51.234;6.754;2024-01-10T03:48:23;18.52;;;8.45;;
28003;SDS011;15330;51.234;6.754;2024-01-10T03:50:49;20.60;;;8.68;;
28003;SDS011;15330;51.234;6.754;2024-01-10T03:53:14;18.15;;;7.68;;
28003;SDS011;15330;51.234;6.754;2024-01-10T03:55:40;19.75;;;9.10;;
28003;SDS011;15330;51.234;6.754;2024-01-10T03:58:05;20.98;;;8.55;;
28003;SDS011;15330;51.234;6.754;2024-01-10T04:00:30;22.75;;;9.80;;
28003;SDS011;15330;51.234;6.754;2024-01-10T04:02:56;20.77;;;9.13;;
28003;SDS011;15330;51.234;6.754;2024-01-10T04:05:21;21.70;;;9.07;;
28003;SDS011;15330;51.234;6.754;2024-01-10T04:07:49;20.77;;;9.13;;
28003;SDS011;15330;51.234;6.754;2024-01-10T04:10:15;24.33;;;8.75;;
28003;SDS011;15330;51.234;6.754;2024-01-10T04:12:41;20.98;;;8.88;;
28003;SDS011;15330;51.234;6.754;2024-01-10T04:15:06;20.17;;;8.88;;
28003;SDS011;15330;51.234;6.754;2024-01-10T04:17:32;22.67;;;8.68;;
28003;SDS011;15330;51.234;6.754;2024-01-10T04:19:58;21.42;;;9.70;;
28003;SDS011;15330;51.234;6.754;2024-01-10T04:22:23;22.08;;;8.75;;
28003;SDS011;15330;51.234;6.754;2024-01-10T04:24:49;19.67;;;8.80;;
28003;SDS011;15330;51.234;6.754;2024-01-10T04:27:15;20.63;;;8.30;;
28003;SDS011;15330;51.234;6.754;2024-01-10T04:29:40;21.05;;;9.88;;
28003;SDS011;15330;51.234;6.754;2024-01-10T04:32:06;23.60;;;8.82;;
28003;SDS011;15330;51.234;6.754;2024-01-10T04:34:31;19.67;;;9.07;;
28003;SDS011;15330;51.234;6.754;2024-01-10T04:36:57;18.55;;;8.63;;
28003;SDS011;15330;51.234;6.754;2024-01-10T04:39:22;21.80;;;9.40;;
28003;SDS011;15330;51.234;6.754;2024-01-10T04:41:48;17.52;;;8.02;;
28003;SDS011;15330;51.234;6.754;2024-01-10T04:44:13;21.30;;;9.43;;
28003;SDS011;15330;51.234;6.754;2024-01-10T04:46:39;23.38;;;9.07;;
28003;SDS011;15330;51.234;6.754;2024-01-10T04:49:06;22.20;;;8.77;;
28003;SDS011;15330;51.234;6.754;2024-01-10T04:51:31;20.52;;;8.27;;
28003;SDS011;15330;51.234;6.754;2024-01-10T04:53:57;21.42;;;8.90;;
28003;SDS011;15330;51.234;6.754;2024-01-10T04:56:23;22.35;;;9.13;;
28003;SDS011;15330;51.234;6.754;2024-01-10T04:58:48;21.38;;;8.90;;
28003;SDS011;15330;51.234;6.754;2024-01-10T05:01:13;18.45;;;8.85;;
28003;SDS011;15330;51.234;6.754;2024-01-10T05:03:39;23.58;;;9.18;;
28003;SDS011;15330;51.234;6.754;2024-01-10T05:06:05;21.80;;;10.02;;
28003;SDS011;15330;51.234;6.754;2024-01-10T05:08:31;19.80;;;8.40;;
28003;SDS011;15330;51.234;6.754;2024-01-10T05:10:56;19.65;;;8.73;;
28003;SDS011;15330;51.234;6.754;2024-01-10T05:13:22;22.70;;;8.82;;
28003;SDS011;15330;51.234;6.754;2024-01-10T05:15:47;19.55;;;8.88;;
28003;SDS011;15330;51.234;6.754;2024-01-10T05:18:13;19.48;;;9.65;;
28003;SDS011;15330;51.234;6.754;2024-01-10T05:20:38;16.38;;;7.97;;
28003;SDS011;15330;51.234;6.754;2024-01-10T05:23:04;21.10;;;8.48;;
28003;SDS011;15330;51.234;6.754;2024-01-10T05:25:30;21.75;;;9.27;;
28003;SDS011;15330;51.234;6.754;2024-01-10T05:27:55;18.20;;;8.82;;
28003;SDS011;15330;51.234;6.754;2024-01-10T05:30:21;21.80;;;8.85;;
28003;SDS011;15330;51.234;6.754;2024-01-10T05:32:46;22.77;;;9.38;;
28003;SDS011;15330;51.234;6.754;2024-01-10T05:35:12;20.88;;;9.43;;
28003;SDS011;15330;51.234;6.754;2024-01-10T05:37:37;20.52;;;9.43;;
28003;SDS011;15330;51.234;6.754;2024-01-10T05:40:03;24.42;;;10.25;;
28003;SDS011;15330;51.234;6.754;2024-01-10T05:42:30;21.67;;;9.07;;
28003;SDS011;15330;51.234;6.754;2024-01-10T05:44:57;20.08;;;9.25;;
28003;SDS011;15330;51.234;6.754;2024-01-10T05:47:23;20.00;;;9.23;;
28003;SDS011;15330;51.234;6.754;2024-01-10T05:49:48;23.65;;;9.52;;
28003;SDS011;15330;51.234;6.754;2024-01-10T05:52:14;25.30;;;9.88;;
28003;SDS011;15330;51.234;6.754;2024-01-10T05:54:39;22.90;;;9.40;;
28003;SDS011;15330;51.234;6.754;2024-01-10T05:57:05;26.63;;;9.93;;
28003;SDS011;15330;51.234;6.754;2024-01-10T05:59:30;21.52;;;9.43;;
28003;SDS011;15330;51.234;6.754;2024-01-10T06:01:56;25.15;;;10.90;;
28003;SDS011;15330;51.234;6.754;2024-01-10T06:04:23;25.95;;;10.43;;
28003;SDS011;15330;51.234;6.754;2024-01-10T06:06:49;19.95;;;8.82;;
28003;SDS011;15330;51.234;6.754;2024-01-10T06:09:14;23.88;;;10.15;;
28003;SDS011;15330;51.234;6.754;2024-01-10T06:11:41;25.90;;;10.35;;
28003;SDS011;15330;51.234;6.754;2024-01-10T06:14:07;23.35;;;10.10;;
28003;SDS011;15330;51.234;6.754;2024-01-10T06:16:32;22.92;;;10.18;;
28003;SDS011;15330;51.234;6.754;2024-01-10T06:18:58;21.60;;;9.20;;
28003;SDS011;15330;51.234;6.754;2024-01-10T06:21:23;22.92;;;9.85;;
28003;SDS011;15330;51.234;6.754;2024-01-10T06:23:48;22.55;;;9.80;;
28003;SDS011;15330;51.234;6.754;2024-01-10T06:26:14;21.48;;;9.70;;
28003;SDS011;15330;51.234;6.754;2024-01-10T06:28:39;26.33;;;10.30;;
28003;SDS011;15330;51.234;6.754;2024-01-10T06:31:04;23.92;;;10.40;;
28003;SDS011;15330;51.234;6.754;2024-01-10T06:33:30;23.33;;;10.00;;
28003;SDS011;15330;51.234;6.754;2024-01-10T06:35:55;23.15;;;10.32;;
28003;SDS011;15330;51.234;6.754;2024-01-10T06:38:21;21.05;;;9.57;;
28003;SDS011;15330;51.234;6.754;2024-01-10T06:40:47;25.20;;;10.02;;
28003;SDS011;15330;51.234;6.754;2024-01-10T06:43:14;21.70;;;9.60;;
28003;SDS011;15330;51.234;6.754;2024-01-10T06:45:39;24.75;;;10.05;;
28003;SDS011;15330;51.234;6.754;2024-01-10T06:48:05;23.45;;;10.38;;
28003;SDS011;15330;51.234;6.754;2024-01-10T06:50:31;21.33;;;10.30;;
28003;SDS011;15330;51.234;6.754;2024-01-10T06:52:57;20.02;;;10.10;;
28003;SDS011;15330;51.234;6.754;2024-01-10T06:55:22;24.38;;;10.63;;
28003;SDS011;15330;51.234;6.754;2024-01-10T06:57:49;20.42;;;10.20;;
28003;SDS011;15330;51.234;6.754;2024-01-10T07:00:18;25.02;;;11.18;;
28003;SDS011;15330;51.234;6.754;2024-01-10T07:02:46;25.50;;;10.98;;
28003;SDS011;15330;51.234;6.754;2024-01-10T07:05:12;27.92;;;10.63;;
28003;SDS011;15330;51.234;6.754;2024-01-10T07:07:37;25.92;;;11.25;;
28003;SDS011;15330;51.234;6.754;2024-01-10T07:10:03;22.77;;;10.50;;
28003;SDS011;15330;51.234;6.754;2024-01-10T07:12:30;31.65;;;10.75;;
28003;SDS011;15330;51.234;6.754;2024-01-10T07:14:56;26.63;;;11.10;;
28003;SDS011;15330;51.234;6.754;2024-01-10T07:17:22;23.80;;;10.93;;
28003;SDS011;15330;51.234;6.754;2024-01-10T07:19:48;27.73;;;11.55;;
28003;SDS011;15330;51.234;6.754;2024-01-10T07:22:13;26.70;;;10.57;;
28003;SDS011;15330;51.234;6.754;2024-01-10T07:24:39;28.70;;;10.40;;
28003;SDS011;15330;51.234;6.754;2024-01-10T07:27:04;31.55;;;11.65;;
28003;SDS011;15330;51.234;6.754;2024-01-10T07:29:31;27.27;;;10.88;;
28003;SDS011;15330;51.234;6.754;2024-01-10T07:31:56;33.28;;;14.30;;
28003;SDS011;15330;51.234;6.754;2024-01-10T07:34:22;31.98;;;11.30;;
28003;SDS011;15330;51.234;6.754;2024-01-10T07:36:47;28.75;;;11.38;;
28003;SDS011;15330;51.234;6.754;2024-01-10T07:39:13;24.80;;;10.73;;
28003;SDS011;15330;51.234;6.754;2024-01-10T07:41:41;30.40;;;11.95;;
28003;SDS011;15330;51.234;6.754;2024-01-10T07:44:07;26.52;;;11.98;;
28003;SDS011;15330;51.234;6.754;2024-01-10T07:46:34;31.35;;;12.07;;
28003;SDS011;15330;51.234;6.754;2024-01-10T07:49:02;26.38;;;12.77;;
28003;SDS011;15330;51.234;6.754;2024-01-10T07:51:28;27.70;;;10.98;;
28003;SDS011;15330;51.234;6.754;2024-01-10T07:53:54;28.15;;;11.50;;
28003;SDS011;15330;51.234;6.754;2024-01-10T07:56:19;27.95;;;11.35;;
28003;SDS011;15330;51.234;6.754;2024-01-10T07:58:45;28.77;;;11.77;;
28003;SDS011;15330;51.234;6.754;2024-01-10T08:01:10;32.15;;;12.40;;
28003;SDS011;15330;51.234;6.754;2024-01-10T08:03:36;25.25;;;11.50;;
28003;SDS011;15330;51.234;6.754;2024-01-10T08:06:01;32.72;;;12.45;;
28003;SDS011;15330;51.234;6.754;2024-01-10T08:08:27;30.17;;;12.75;;
28003;SDS011;15330;51.234;6.754;2024-01-10T08:10:53;32.22;;;12.20;;
28003;SDS011;15330;51.234;6.754;2024-01-10T08:13:20;30.50;;;12.55;;
28003;SDS011;15330;51.234;6.754;2024-01-10T08:15:46;32.20;;;13.13;;
28003;SDS011;15330;51.234;6.754;2024-01-10T08:18:11;28.05;;;12.27;;
28003;SDS011;15330;51.234;6.754;2024-01-10T08:20:39;27.50;;;11.95;;
28003;SDS011;15330;51.234;6.754;2024-01-10T08:23:04;34.90;;;12.50;;
28003;SDS011;15330;51.234;6.754;2024-01-10T08:25:30;27.17;;;12.27;;
28003;SDS011;15330;51.234;6.754;2024-01-10T08:27:55;34.00;;;13.32;;
28003;SDS011;15330;51.234;6.754;2024-01-10T08:30:22;28.85;;;12.32;;
28003;SDS011;15330;51.234;6.754;2024-01-10T08:32:48;27.13;;;11.98;;
28003;SDS011;15330;51.234;6.754;2024-01-10T08:35:14;28.33;;;12.50;;
28003;SDS011;15330;51.234;6.754;2024-01-10T08:37:39;35.63;;;12.57;;
28003;SDS011;15330;51.234;6.754;2024-01-10T08:40:09;31.33;;;12.27;;
28003;SDS011;15330;51.234;6.754;2024-01-10T08:42:37;28.75;;;12.38;;
28003;SDS011;15330;51.234;6.754;2024-01-10T08:45:03;30.60;;;12.65;;
28003;SDS011;15330;51.234;6.754;2024-01-10T08:47:29;25.35;;;11.48;;
28003;SDS011;15330;51.234;6.754;2024-01-10T08:49:57;30.15;;;12.63;;
28003;SDS011;15330;51.234;6.754;2024-01-10T08:52:23;27.33;;;12.55;;
28003;SDS011;15330;51.234;6.754;2024-01-10T08:54:48;33.72;;;13.75;;
28003;SDS011;15330;51.234;6.754;2024-01-10T08:57:14;28.98;;;13.10;;
28003;SDS011;15330;51.234;6.754;2024-01-10T08:59:42;26.77;;;12.40;;
28003;SDS011;15330;51.234;6.754;2024-01-10T09:02:08;23.40;;;11.80;;
28003;SDS011;15330;51.234;6.754;2024-01-10T09:04:33;23.70;;;11.60;;
28003;SDS011;15330;51.234;6.754;2024-01-10T09:06:59;26.05;;;12.82;;
28003;SDS011;15330;51.234;6.754;2024-01-10T09:09:24;36.53;;;14.25;;
28003;SDS011;15330;51.234;6.754;2024-01-10T09:11:49;25.50;;;12.38;;
28003;SDS011;15330;51.234;6.754;2024-01-10T09:14:15;22.40;;;12.05;;
28003;SDS011;15330;51.234;6.754;2024-01-10T09:16:40;28.45;;;12.73;;
28003;SDS011;15330;51.234;6.754;2024-01-10T09:19:06;23.40;;;12.35;;
28003;SDS011;15330;51.234;6.754;2024-01-10T09:21:31;23.55;;;12.77;;
28003;SDS011;15330;51.234;6.754;2024-01-10T09:23:56;23.02;;;13.20;;
28003;SDS011;15330;51.234;6.754;2024-01-10T09:26:22;27.13;;;13.50;;
28003;SDS011;15330;51.234;6.754;2024-01-10T09:28:48;27.02;;;13.02;;
28003;SDS011;15330;51.234;6.754;2024-01-10T09:31:13;24.70;;;14.18;;
28003;SDS011;15330;51.234;6.754;2024-01-10T09:33:39;27.77;;;13.57;;
28003;SDS011;15330;51.234;6.754;2024-01-10T09:36:05;27.45;;;15.65;;
28003;SDS011;15330;51.234;6.754;2024-01-10T09:38:40;27.92;;;15.85;;
28003;SDS011;15330;51.234;6.754;2024-01-10T09:41:05;27.42;;;15.88;;
28003;SDS011;15330;51.234;6.754;2024-01-10T09:43:31;25.77;;;15.90;;
28003;SDS011;15330;51.234;6.754;2024-01-10T09:45:58;34.70;;;16.27;;
28003;SDS011;15330;51.234;6.754;2024-01-10T09:48:25;24.52;;;16.63;;
28003;SDS011;15330;51.234;6.754;2024-01-10T09:50:51;25.55;;;15.85;;
28003;SDS011;15330;51.234;6.754;2024-01-10T09:53:24;22.40;;;14.43;;
28003;SDS011;15330;51.234;6.754;2024-01-10T09:55:51;27.08;;;15.30;;
28003;SDS011;15330;51.234;6.754;2024-01-10T09:58:21;24.85;;;15.93;;
28003;SDS011;15330;51.234;6.754;2024-01-10T10:00:48;28.98;;;16.90;;
28003;SDS011;15330;51.234;6.754;2024-01-10T10:03:13;26.20;;;15.90;;
28003;SDS011;15330;51.234;6.754;2024-01-10T10:05:42;25.38;;;16.27;;
28003;SDS011;15330;51.234;6.754;2024-01-10T10:08:07;24.77;;;16.10;;
28003;SDS011;15330;51.234;6.754;2024-01-10T10:10:35;29.67;;;15.98;;
28003;SDS011;15330;51.234;6.754;2024-01-10T10:13:00;22.65;;;15.73;;
28003;SDS011;15330;51.234;6.754;2024-01-10T10:15:27;24.80;;;16.42;;
28003;SDS011;15330;51.234;6.754;2024-01-10T10:17:52;28.13;;;16.00;;
28003;SDS011;15330;51.234;6.754;2024-01-10T10:23:03;28.40;;;17.27;;
28003;SDS011;15330;51.234;6.754;2024-01-10T10:27:57;23.17;;;16.45;;
28003;SDS011;15330;51.234;6.754;2024-01-10T10:30:23;21.55;;;17.35;;
28003;SDS011;15330;51.234;6.754;2024-01-10T10:32:49;23.63;;;17.75;;
28003;SDS011;15330;51.234;6.754;2024-01-10T10:35:15;24.52;;;18.75;;
28003;SDS011;15330;51.234;6.754;2024-01-10T10:37:40;25.83;;;19.17;;
28003;SDS011;15330;51.234;6.754;2024-01-10T10:40:06;27.27;;;18.98;;
28003;SDS011;15330;51.234;6.754;2024-01-10T10:42:36;24.65;;;19.10;;
28003;SDS011;15330;51.234;6.754;2024-01-10T10:45:08;26.90;;;18.83;;
28003;SDS011;15330;51.234;6.754;2024-01-10T10:47:37;29.27;;;20.00;;
28003;SDS011;15330;51.234;6.754;2024-01-10T10:50:08;23.60;;;19.50;;
28003;SDS011;15330;51.234;6.754;2024-01-10T10:52:40;30.88;;;19.98;;
28003;SDS011;15330;51.234;6.754;2024-01-10T10:55:09;24.45;;;18.27;;
28003;SDS011;15330;51.234;6.754;2024-01-10T10:57:37;24.08;;;21.40;;
28003;SDS011;15330;51.234;6.754;2024-01-10T11:00:05;27.95;;;22.85;;
28003;SDS011;15330;51.234;6.754;2024-01-10T11:02:32;27.42;;;21.70;;
28003;SDS011;15330;51.234;6.754;2024-01-10T11:04:57;24.73;;;22.00;;
28003;SDS011;15330;51.234;6.754;2024-01-10T11:07:24;23.42;;;21.00;;
28003;SDS011;15330;51.234;6.754;2024-01-10T11:09:50;29.95;;;26.63;;
28003;SDS011;15330;51.234;6.754;2024-01-10T11:12:21;26.42;;;20.33;;
28003;SDS011;15330;51.234;6.754;2024-01-10T11:17:57;27.63;;;20.13;;
28003;SDS011;15330;51.234;6.754;2024-01-10T11:25:40;28.52;;;20.08;;
28003;SDS011;15330;51.234;6.754;2024-01-10T11:28:06;27.95;;;22.40;;
28003;SDS011;15330;51.234;6.754;2024-01-10T11:30:35;25.38;;;21.60;;
28003;SDS011;15330;51.234;6.754;2024-01-10T11:33:01;26.88;;;15.52;;
28003;SDS011;15330;51.234;6.754;2024-01-10T11:35:42;24.83;;;13.50;;
28003;SDS011;15330;51.234;6.754;2024-01-10T11:38:30;24.38;;;12.77;;
28003;SDS011;15330;51.234;6.754;2024-01-10T11:40:56;24.02;;;13.05;;
28003;SDS011;15330;51.234;6.754;2024-01-10T11:43:22;32.22;;;13.88;;
28003;SDS011;15330;51.234;6.754;2024-01-10T11:45:51;22.92;;;13.68;;
28003;SDS011;15330;51.234;6.754;2024-01-10T11:48:25;26.95;;;12.65;;
28003;SDS011;15330;51.234;6.754;2024-01-10T11:50:52;29.02;;;13.50;;
28003;SDS011;15330;51.234;6.754;2024-01-10T11:53:37;25.25;;;14.02;;
28003;SDS011;15330;51.234;6.754;2024-01-10T11:56:10;29.90;;;13.27;;
28003;SDS011;15330;51.234;6.754;2024-01-10T11:59:01;31.33;;;14.70;;
28003;SDS011;15330;51.234;6.754;2024-01-10T12:01:30;30.65;;;13.98;;
28003;SDS011;15330;51.234;6.754;2024-01-10T12:03:56;28.00;;;14.10;;
28003;SDS011;15330;51.234;6.754;2024-01-10T12:06:23;28.10;;;13.38;;
28003;SDS011;15330;51.234;6.754;2024-01-10T12:08:50;30.45;;;13.57;;
28003;SDS011;15330;51.234;6.754;2024-01-10T12:11:16;26.23;;;12.73;;
28003;SDS011;15330;51.234;6.754;2024-01-10T12:13:42;28.67;;;12.38;;
28003;SDS011;15330;51.234;6.754;2024-01-10T12:16:08;27.80;;;13.63;;
28003;SDS011;15330;51.234;6.754;2024-01-10T12:18:33;28.73;;;13.75;;
28003;SDS011;15330;51.234;6.754;2024-01-10T12:20:59;31.48;;;13.65;;
28003;SDS011;15330;51.234;6.754;2024-01-10T12:23:24;29.55;;;13.57;;
28003;SDS011;15330;51.234;6.754;2024-01-10T12:25:55;25.48;;;12.27;;
28003;SDS011;15330;51.234;6.754;2024-01-10T12:28:21;23.10;;;11.77;;
28003;SDS011;15330;51.234;6.754;2024-01-10T12:30:47;24.50;;;11.82;;
28003;SDS011;15330;51.234;6.754;2024-01-10T12:33:12;25.23;;;12.00;;
28003;SDS011;15330;51.234;6.754;2024-01-10T12:35:38;27.15;;;12.38;;
28003;SDS011;15330;51.234;6.754;2024-01-10T12:38:07;23.92;;;12.48;;
28003;SDS011;15330;51.234;6.754;2024-01-10T12:40:35;35.72;;;12.60;;
28003;SDS011;15330;51.234;6.754;2024-01-10T12:43:04;26.92;;;12.60;;
28003;SDS011;15330;51.234;6.754;2024-01-10T12:45:30;31.13;;;12.70;;
28003;SDS011;15330;51.234;6.754;2024-01-10T12:47:59;29.25;;;13.25;;
28003;SDS011;15330;51.234;6.754;2024-01-10T12:50:24;32.67;;;13.73;;
28003;SDS011;15330;51.234;6.754;2024-01-10T12:52:50;26.80;;;12.60;;
28003;SDS011;15330;51.234;6.754;2024-01-10T12:55:16;28.33;;;13.20;;
28003;SDS011;15330;51.234;6.754;2024-01-10T12:57:42;26.85;;;12.45;;
28003;SDS011;15330;51.234;6.754;2024-01-10T13:00:08;23.15;;;11.82;;
28003;SDS011;15330;51.234;6.754;2024-01-10T13:02:36;28.23;;;12.57;;
28003;SDS011;15330;51.234;6.754;2024-01-10T13:05:05;27.92;;;11.60;;
28003;SDS011;15330;51.234;6.754;2024-01-10T13:07:34;23.10;;;11.95;;
28003;SDS011;15330;51.234;6.754;2024-01-10T13:10:00;25.05;;;12.15;;
28003;SDS011;15330;51.234;6.754;2024-01-10T13:12:26;30.40;;;12.93;;
28003;SDS011;15330;51.234;6.754;2024-01-10T13:14:52;33.03;;;14.18;;
28003;SDS011;15330;51.234;6.754;2024-01-10T13:17:18;26.75;;;13.32;;
28003;SDS011;15330;51.234;6.754;2024-01-10T13:19:43;24.75;;;13.05;;
28003;SDS011;15330;51.234;6.754;2024-01-10T13:22:13;36.97;;;16.65;;
28003;SDS011;15330;51.234;6.754;2024-01-10T13:24:40;33.22;;;15.73;;
28003;SDS011;15330;51.234;6.754;2024-01-10T13:27:07;37.10;;;16.65;;
28003;SDS011;15330;51.234;6.754;2024-01-10T13:29:34;37.70;;;16.95;;
28003;SDS011;15330;51.234;6.754;2024-01-10T13:32:02;32.67;;;16.52;;
28003;SDS011;15330;51.234;6.754;2024-01-10T13:34:28;36.25;;;17.35;;
28003;SDS011;15330;51.234;6.754;2024-01-10T13:36:53;38.47;;;18.63;;
28003;SDS011;15330;51.234;6.754;2024-01-10T13:39:19;38.60;;;17.83;;
28003;SDS011;15330;51.234;6.754;2024-01-10T13:41:44;33.47;;;16.15;;
28003;SDS011;15330;51.234;6.754;2024-01-10T13:44:09;37.75;;;17.23;;
28003;SDS011;15330;51.234;6.754;2024-01-10T13:46:35;42.13;;;17.38;;
28003;SDS011;15330;51.234;6.754;2024-01-10T13:49:00;41.03;;;17.50;;
28003;SDS011;15330;51.234;6.754;2024-01-10T13:51:26;33.20;;;17.08;;
28003;SDS011;15330;51.234;6.754;2024-01-10T13:53:52;37.70;;;17.27;;
28003;SDS011;15330;51.234;6.754;2024-01-10T13:56:17;61.58;;;19.90;;
28003;SDS011;15330;51.234;6.754;2024-01-10T13:58:43;41.72;;;18.05;;
28003;SDS011;15330;51.234;6.754;2024-01-10T14:01:08;35.63;;;17.17;;
28003;SDS011;15330;51.234;6.754;2024-01-10T14:03:37;37.03;;;17.20;;
28003;SDS011;15330;51.234;6.754;2024-01-10T14:06:02;42.10;;;18.20;;
28003;SDS011;15330;51.234;6.754;2024-01-10T14:08:28;36.88;;;18.30;;
28003;SDS011;15330;51.234;6.754;2024-01-10T14:10:54;41.30;;;18.20;;
28003;SDS011;15330;51.234;6.754;2024-01-10T14:13:19;41.53;;;17.80;;
28003;SDS011;15330;51.234;6.754;2024-01-10T14:15:45;40.13;;;18.08;;
28003;SDS011;15330;51.234;6.754;2024-01-10T14:18:10;34.45;;;16.33;;
28003;SDS011;15330;51.234;6.754;2024-01-10T14:20:35;40.20;;;17.08;;
28003;SDS011;15330;51.234;6.754;2024-01-10T14:23:01;43.75;;;17.95;;
28003;SDS011;15330;51.234;6.754;2024-01-10T14:25:26;36.63;;;16.60;;
28003;SDS011;15330;51.234;6.754;2024-01-10T14:27:52;46.20;;;17.95;;
28003;SDS011;15330;51.234;6.754;2024-01-10T14:30:17;36.60;;;17.83;;
28003;SDS011;15330;51.234;6.754;2024-01-10T14:32:44;35.78;;;17.45;;